sensor_id;sensor_type;location;lat;lon;timestamp;P1;durP1;ratioP1;P2;durP2;ratioP2
51190;SDS011;37253;48.736;9.294;2022-12-29T00:00:09;5.93;;;2.10;;
51190;SDS011;37253;48.736;9.294;2022-12-29T00:02:11;6.28;;;2.60;;
51190;SDS011;37253;48.736;9.294;2022-12-29T00:04:12;2.78;;;2.22;;
51190;SDS011;37253;48.736;9.294;2022-12-29T00:06:16;3.67;;;2.58;;
51190;SDS011;37253;48.736;9.294;2022-12-29T00:08:16;3.88;;;2.78;;
51190;SDS011;37253;48.736;9.294;2022-12-29T00:10:16;4.03;;;2.28;;
51190;SDS011;37253;48.736;9.294;2022-12-29T00:12:17;3.97;;;2.47;;
51190;SDS011;37253;48.736;9.294;2022-12-29T00:14:17;3.58;;;2.40;;
51190;SDS011;37253;48.736;9.294;2022-12-29T00:16:36;6.55;;;2.50;;
51190;SDS011;37253;48.736;9.294;2022-12-29T00:18:36;3.60;;;2.08;;
51190;SDS011;37253;48.736;9.294;2022-12-29T00:20:37;2.67;;;2.10;;
51190;SDS011;37253;48.736;9.294;2022-12-29T00:22:56;4.32;;;2.40;;
51190;SDS011;37253;48.736;9.294;2022-12-29T00:25:15;2.65;;;2.13;;
51190;SDS011;37253;48.736;9.294;2022-12-29T00:27:34;4.40;;;2.40;;
51190;SDS011;37253;48.736;9.294;2022-12-29T00:29:53;4.00;;;2.50;;
51190;SDS011;37253;48.736;9.294;2022-12-29T00:32:12;3.78;;;2.20;;
51190;SDS011;37253;48.736;9.294;2022-12-29T00:34:31;3.28;;;2.40;;
51190;SDS011;37253;48.736;9.294;2022-12-29T00:36:50;2.72;;;2.35;;
51190;SDS011;37253;48.736;9.294;2022-12-29T00:38:51;4.22;;;2.28;;
51190;SDS011;37253;48.736;9.294;2022-12-29T00:41:12;4.55;;;2.47;;
51190;SDS011;37253;48.736;9.294;2022-12-29T00:43:31;2.40;;;1.98;;
51190;SDS011;37253;48.736;9.294;2022-12-29T00:45:50;3.78;;;2.40;;
51190;SDS011;37253;48.736;9.294;2022-12-29T00:47:51;5.78;;;2.30;;
51190;SDS011;37253;48.736;9.294;2022-12-29T00:49:51;3.28;;;2.22;;
51190;SDS011;37253;48.736;9.294;2022-12-29T00:51:51;3.25;;;2.20;;
51190;SDS011;37253;48.736;9.294;2022-12-29T00:53:52;4.68;;;2.30;;
51190;SDS011;37253;48.736;9.294;2022-12-29T00:55:52;4.28;;;2.22;;
51190;SDS011;37253;48.736;9.294;2022-12-29T00:57:52;3.40;;;2.67;;
51190;SDS011;37253;48.736;9.294;2022-12-29T00:59:53;5.93;;;2.10;;
51190;SDS011;37253;48.736;9.294;2022-12-29T01:01:53;3.63;;;2.22;;
51190;SDS011;37253;48.736;9.294;2022-12-29T01:03:54;2.90;;;2.33;;
51190;SDS011;37253;48.736;9.294;2022-12-29T01:05:54;2.88;;;2.17;;
51190;SDS011;37253;48.736;9.294;2022-12-29T01:07:55;3.65;;;2.10;;
51190;SDS011;37253;48.736;9.294;2022-12-29T01:09:55;3.85;;;2.13;;
51190;SDS011;37253;48.736;9.294;2022-12-29T01:12:10;3.92;;;2.20;;
51190;SDS011;37253;48.736;9.294;2022-12-29T01:14:11;4.25;;;2.67;;
51190;SDS011;37253;48.736;9.294;2022-12-29T01:16:11;3.72;;;2.08;;
51190;SDS011;37253;48.736;9.294;2022-12-29T01:18:11;3.22;;;2.05;;
51190;SDS011;37253;48.736;9.294;2022-12-29T01:20:12;2.92;;;2.10;;
51190;SDS011;37253;48.736;9.294;2022-12-29T01:22:12;2.85;;;2.50;;
51190;SDS011;37253;48.736;9.294;2022-12-29T01:24:13;4.22;;;2.00;;
51190;SDS011;37253;48.736;9.294;2022-12-29T01:26:15;2.53;;;2.22;;
51190;SDS011;37253;48.736;9.294;2022-12-29T01:28:16;2.90;;;2.22;;
51190;SDS011;37253;48.736;9.294;2022-12-29T01:30:16;5.70;;;2.35;;
51190;SDS011;37253;48.736;9.294;2022-12-29T01:32:17;3.15;;;2.50;;
51190;SDS011;37253;48.736;9.294;2022-12-29T01:34:17;2.90;;;2.22;;
51190;SDS011;37253;48.736;9.294;2022-12-29T01:36:18;3.25;;;2.30;;
51190;SDS011;37253;48.736;9.294;2022-12-29T01:38:18;6.28;;;2.03;;
51190;SDS011;37253;48.736;9.294;2022-12-29T01:40:18;2.72;;;2.13;;
51190;SDS011;37253;48.736;9.294;2022-12-29T01:42:21;2.90;;;2.15;;
51190;SDS011;37253;48.736;9.294;2022-12-29T01:44:46;2.65;;;2.25;;
51190;SDS011;37253;48.736;9.294;2022-12-29T01:46:52;3.03;;;2.20;;
51190;SDS011;37253;48.736;9.294;2022-12-29T01:48:53;3.55;;;2.40;;
51190;SDS011;37253;48.736;9.294;2022-12-29T01:50:59;2.80;;;2.30;;
51190;SDS011;37253;48.736;9.294;2022-12-29T01:53:02;3.47;;;2.25;;
51190;SDS011;37253;48.736;9.294;2022-12-29T01:55:05;3.80;;;2.00;;
51190;SDS011;37253;48.736;9.294;2022-12-29T01:57:07;4.22;;;2.65;;
51190;SDS011;37253;48.736;9.294;2022-12-29T02:01:11;2.95;;;2.13;;
51190;SDS011;37253;48.736;9.294;2022-12-29T02:03:11;3.47;;;2.20;;
51190;SDS011;37253;48.736;9.294;2022-12-29T02:05:21;2.65;;;2.10;;
51190;SDS011;37253;48.736;9.294;2022-12-29T02:07:24;4.47;;;2.13;;
51190;SDS011;37253;48.736;9.294;2022-12-29T02:09:27;5.80;;;2.60;;
51190;SDS011;37253;48.736;9.294;2022-12-29T02:11:27;3.10;;;1.95;;
51190;SDS011;37253;48.736;9.294;2022-12-29T02:13:29;4.93;;;2.20;;
51190;SDS011;37253;48.736;9.294;2022-12-29T02:20:11;3.78;;;2.20;;
51190;SDS011;37253;48.736;9.294;2022-12-29T02:22:29;3.38;;;2.67;;
51190;SDS011;37253;48.736;9.294;2022-12-29T02:29:30;3.25;;;2.15;;
51190;SDS011;37253;48.736;9.294;2022-12-29T02:45:31;2.92;;;2.13;;
51190;SDS011;37253;48.736;9.294;2022-12-29T02:47:38;3.90;;;1.92;;
51190;SDS011;37253;48.736;9.294;2022-12-29T02:50:05;6.30;;;2.25;;
51190;SDS011;37253;48.736;9.294;2022-12-29T02:52:11;2.03;;;1.80;;
51190;SDS011;37253;48.736;9.294;2022-12-29T02:54:17;3.58;;;2.13;;
51190;SDS011;37253;48.736;9.294;2022-12-29T02:56:37;4.40;;;2.20;;
51190;SDS011;37253;48.736;9.294;2022-12-29T02:58:37;6.82;;;2.40;;
51190;SDS011;37253;48.736;9.294;2022-12-29T03:00:38;3.88;;;2.10;;
51190;SDS011;37253;48.736;9.294;2022-12-29T03:03:08;3.30;;;2.40;;
51190;SDS011;37253;48.736;9.294;2022-12-29T03:05:23;2.88;;;2.22;;
51190;SDS011;37253;48.736;9.294;2022-12-29T03:09:43;2.38;;;1.95;;
51190;SDS011;37253;48.736;9.294;2022-12-29T03:12:03;3.20;;;2.03;;
51190;SDS011;37253;48.736;9.294;2022-12-29T03:14:27;5.65;;;2.13;;
51190;SDS011;37253;48.736;9.294;2022-12-29T03:16:52;5.10;;;2.05;;
51190;SDS011;37253;48.736;9.294;2022-12-29T03:18:56;3.15;;;1.83;;
51190;SDS011;37253;48.736;9.294;2022-12-29T03:21:02;3.17;;;1.95;;
51190;SDS011;37253;48.736;9.294;2022-12-29T03:23:05;2.53;;;1.75;;
51190;SDS011;37253;48.736;9.294;2022-12-29T03:25:26;3.15;;;1.88;;
51190;SDS011;37253;48.736;9.294;2022-12-29T03:27:31;3.45;;;1.80;;
51190;SDS011;37253;48.736;9.294;2022-12-29T03:29:51;2.60;;;1.80;;
51190;SDS011;37253;48.736;9.294;2022-12-29T03:31:53;3.85;;;2.42;;
51190;SDS011;37253;48.736;9.294;2022-12-29T03:33:54;2.75;;;1.95;;
51190;SDS011;37253;48.736;9.294;2022-12-29T03:35:57;3.58;;;2.00;;
51190;SDS011;37253;48.736;9.294;2022-12-29T03:38:02;3.63;;;1.80;;
51190;SDS011;37253;48.736;9.294;2022-12-29T03:40:07;2.92;;;1.60;;
51190;SDS011;37253;48.736;9.294;2022-12-29T03:42:09;2.50;;;1.77;;
51190;SDS011;37253;48.736;9.294;2022-12-29T03:44:12;2.90;;;2.00;;
51190;SDS011;37253;48.736;9.294;2022-12-29T03:46:13;2.58;;;1.88;;
51190;SDS011;37253;48.736;9.294;2022-12-29T03:48:13;2.88;;;1.85;;
51190;SDS011;37253;48.736;9.294;2022-12-29T03:50:13;4.53;;;2.05;;
51190;SDS011;37253;48.736;9.294;2022-12-29T03:52:14;2.85;;;1.75;;
51190;SDS011;37253;48.736;9.294;2022-12-29T03:54:14;4.15;;;2.08;;
51190;SDS011;37253;48.736;9.294;2022-12-29T03:56:14;2.28;;;1.40;;
51190;SDS011;37253;48.736;9.294;2022-12-29T03:58:15;2.63;;;1.45;;
51190;SDS011;37253;48.736;9.294;2022-12-29T04:00:15;2.08;;;1.50;;
51190;SDS011;37253;48.736;9.294;2022-12-29T04:02:15;2.70;;;1.55;;
51190;SDS011;37253;48.736;9.294;2022-12-29T04:04:16;2.53;;;1.77;;
51190;SDS011;37253;48.736;9.294;2022-12-29T04:06:16;2.45;;;1.48;;
51190;SDS011;37253;48.736;9.294;2022-12-29T04:08:16;1.70;;;1.50;;
51190;SDS011;37253;48.736;9.294;2022-12-29T04:10:17;2.75;;;1.40;;
51190;SDS011;37253;48.736;9.294;2022-12-29T04:12:17;2.67;;;1.60;;
51190;SDS011;37253;48.736;9.294;2022-12-29T04:14:18;2.78;;;1.50;;
51190;SDS011;37253;48.736;9.294;2022-12-29T04:16:18;2.45;;;1.20;;
51190;SDS011;37253;48.736;9.294;2022-12-29T04:18:18;1.88;;;1.30;;
51190;SDS011;37253;48.736;9.294;2022-12-29T04:20:18;1.77;;;1.38;;
51190;SDS011;37253;48.736;9.294;2022-12-29T04:22:37;2.70;;;1.60;;
51190;SDS011;37253;48.736;9.294;2022-12-29T04:24:38;3.58;;;1.40;;
51190;SDS011;37253;48.736;9.294;2022-12-29T04:26:38;2.10;;;1.30;;
51190;SDS011;37253;48.736;9.294;2022-12-29T04:28:38;1.70;;;1.38;;
51190;SDS011;37253;48.736;9.294;2022-12-29T04:30:39;1.70;;;1.40;;
51190;SDS011;37253;48.736;9.294;2022-12-29T04:32:39;4.07;;;1.20;;
51190;SDS011;37253;48.736;9.294;2022-12-29T04:34:39;2.20;;;1.20;;
51190;SDS011;37253;48.736;9.294;2022-12-29T04:36:40;1.48;;;1.20;;
51190;SDS011;37253;48.736;9.294;2022-12-29T04:38:40;1.75;;;1.17;;
51190;SDS011;37253;48.736;9.294;2022-12-29T04:40:41;3.03;;;1.50;;
51190;SDS011;37253;48.736;9.294;2022-12-29T04:42:42;1.55;;;1.10;;
51190;SDS011;37253;48.736;9.294;2022-12-29T04:44:42;2.13;;;1.52;;
51190;SDS011;37253;48.736;9.294;2022-12-29T04:46:42;1.58;;;1.38;;
51190;SDS011;37253;48.736;9.294;2022-12-29T04:48:43;1.83;;;1.20;;
51190;SDS011;37253;48.736;9.294;2022-12-29T04:50:43;2.38;;;1.30;;
51190;SDS011;37253;48.736;9.294;2022-12-29T04:52:43;2.80;;;1.25;;
51190;SDS011;37253;48.736;9.294;2022-12-29T04:54:44;2.72;;;1.23;;
51190;SDS011;37253;48.736;9.294;2022-12-29T04:56:44;2.47;;;1.40;;
51190;SDS011;37253;48.736;9.294;2022-12-29T04:58:44;4.40;;;1.15;;
51190;SDS011;37253;48.736;9.294;2022-12-29T05:00:45;1.10;;;1.00;;
51190;SDS011;37253;48.736;9.294;2022-12-29T05:02:45;2.10;;;1.30;;
51190;SDS011;37253;48.736;9.294;2022-12-29T05:04:45;1.45;;;1.20;;
51190;SDS011;37253;48.736;9.294;2022-12-29T05:06:46;2.53;;;1.23;;
51190;SDS011;37253;48.736;9.294;2022-12-29T05:08:46;3.20;;;1.30;;
51190;SDS011;37253;48.736;9.294;2022-12-29T05:10:47;2.03;;;1.20;;
51190;SDS011;37253;48.736;9.294;2022-12-29T05:12:47;1.70;;;1.17;;
51190;SDS011;37253;48.736;9.294;2022-12-29T05:14:47;2.30;;;1.15;;
51190;SDS011;37253;48.736;9.294;2022-12-29T05:16:48;1.55;;;1.00;;
51190;SDS011;37253;48.736;9.294;2022-12-29T05:18:48;3.03;;;1.08;;
51190;SDS011;37253;48.736;9.294;2022-12-29T05:20:48;3.13;;;1.17;;
51190;SDS011;37253;48.736;9.294;2022-12-29T05:22:49;1.60;;;1.08;;
51190;SDS011;37253;48.736;9.294;2022-12-29T05:24:49;2.35;;;0.98;;
51190;SDS011;37253;48.736;9.294;2022-12-29T05:26:49;1.38;;;1.08;;
51190;SDS011;37253;48.736;9.294;2022-12-29T05:28:50;3.42;;;1.17;;
51190;SDS011;37253;48.736;9.294;2022-12-29T05:30:50;1.83;;;1.20;;
51190;SDS011;37253;48.736;9.294;2022-12-29T05:32:51;1.85;;;1.00;;
51190;SDS011;37253;48.736;9.294;2022-12-29T05:34:51;3.28;;;1.17;;
51190;SDS011;37253;48.736;9.294;2022-12-29T05:36:51;1.50;;;1.00;;
51190;SDS011;37253;48.736;9.294;2022-12-29T05:38:51;1.55;;;1.00;;
51190;SDS011;37253;48.736;9.294;2022-12-29T05:40:52;1.50;;;1.00;;
51190;SDS011;37253;48.736;9.294;2022-12-29T05:42:52;1.50;;;0.98;;
51190;SDS011;37253;48.736;9.294;2022-12-29T05:44:52;1.77;;;0.93;;
51190;SDS011;37253;48.736;9.294;2022-12-29T05:46:53;5.63;;;1.10;;
51190;SDS011;37253;48.736;9.294;2022-12-29T05:48:54;1.35;;;1.05;;
51190;SDS011;37253;48.736;9.294;2022-12-29T05:50:54;0.80;;;0.70;;
51190;SDS011;37253;48.736;9.294;2022-12-29T05:52:54;4.05;;;1.05;;
51190;SDS011;37253;48.736;9.294;2022-12-29T05:54:54;3.53;;;0.93;;
51190;SDS011;37253;48.736;9.294;2022-12-29T05:56:55;1.00;;;0.90;;
51190;SDS011;37253;48.736;9.294;2022-12-29T05:58:55;1.60;;;0.82;;
51190;SDS011;37253;48.736;9.294;2022-12-29T06:00:55;1.60;;;1.00;;
51190;SDS011;37253;48.736;9.294;2022-12-29T06:02:56;2.47;;;1.00;;
51190;SDS011;37253;48.736;9.294;2022-12-29T06:04:56;5.88;;;1.20;;
51190;SDS011;37253;48.736;9.294;2022-12-29T06:06:56;3.63;;;1.07;;
51190;SDS011;37253;48.736;9.294;2022-12-29T06:08:57;3.67;;;0.80;;
51190;SDS011;37253;48.736;9.294;2022-12-29T06:10:57;1.17;;;0.82;;
51190;SDS011;37253;48.736;9.294;2022-12-29T06:12:57;1.40;;;0.90;;
51190;SDS011;37253;48.736;9.294;2022-12-29T06:14:57;2.40;;;1.10;;
51190;SDS011;37253;48.736;9.294;2022-12-29T06:16:58;1.98;;;1.08;;
51190;SDS011;37253;48.736;9.294;2022-12-29T06:18:59;1.40;;;0.88;;
51190;SDS011;37253;48.736;9.294;2022-12-29T06:21:00;2.45;;;1.17;;
51190;SDS011;37253;48.736;9.294;2022-12-29T06:23:01;3.75;;;0.90;;
51190;SDS011;37253;48.736;9.294;2022-12-29T06:25:02;1.20;;;0.90;;
51190;SDS011;37253;48.736;9.294;2022-12-29T06:27:02;1.48;;;0.88;;
51190;SDS011;37253;48.736;9.294;2022-12-29T06:29:03;3.47;;;1.00;;
51190;SDS011;37253;48.736;9.294;2022-12-29T06:31:03;1.40;;;0.90;;
51190;SDS011;37253;48.736;9.294;2022-12-29T06:33:03;1.80;;;0.90;;
51190;SDS011;37253;48.736;9.294;2022-12-29T06:35:04;1.00;;;0.75;;
51190;SDS011;37253;48.736;9.294;2022-12-29T06:37:06;1.85;;;0.85;;
51190;SDS011;37253;48.736;9.294;2022-12-29T06:39:06;2.55;;;1.00;;
51190;SDS011;37253;48.736;9.294;2022-12-29T06:41:06;9.20;;;1.25;;
51190;SDS011;37253;48.736;9.294;2022-12-29T06:43:07;13.75;;;1.17;;
51190;SDS011;37253;48.736;9.294;2022-12-29T06:45:07;1.67;;;0.80;;
51190;SDS011;37253;48.736;9.294;2022-12-29T06:47:08;3.30;;;0.90;;
51190;SDS011;37253;48.736;9.294;2022-12-29T06:49:08;3.15;;;0.73;;
51190;SDS011;37253;48.736;9.294;2022-12-29T06:51:08;4.85;;;0.80;;
51190;SDS011;37253;48.736;9.294;2022-12-29T06:53:08;1.65;;;0.90;;
51190;SDS011;37253;48.736;9.294;2022-12-29T06:55:09;5.38;;;0.73;;
51190;SDS011;37253;48.736;9.294;2022-12-29T06:57:09;1.90;;;1.00;;
51190;SDS011;37253;48.736;9.294;2022-12-29T06:59:09;2.10;;;0.98;;
51190;SDS011;37253;48.736;9.294;2022-12-29T07:01:10;2.75;;;0.80;;
51190;SDS011;37253;48.736;9.294;2022-12-29T07:03:10;1.98;;;0.80;;
51190;SDS011;37253;48.736;9.294;2022-12-29T07:05:10;1.00;;;0.80;;
51190;SDS011;37253;48.736;9.294;2022-12-29T07:07:11;7.65;;;0.82;;
51190;SDS011;37253;48.736;9.294;2022-12-29T07:09:11;4.28;;;0.82;;
51190;SDS011;37253;48.736;9.294;2022-12-29T07:11:12;1.50;;;0.82;;
51190;SDS011;37253;48.736;9.294;2022-12-29T07:13:12;1.95;;;0.88;;
51190;SDS011;37253;48.736;9.294;2022-12-29T07:15:12;2.20;;;0.75;;
51190;SDS011;37253;48.736;9.294;2022-12-29T07:17:12;4.45;;;0.98;;
51190;SDS011;37253;48.736;9.294;2022-12-29T07:19:13;1.73;;;0.88;;
51190;SDS011;37253;48.736;9.294;2022-12-29T07:21:13;3.15;;;0.85;;
51190;SDS011;37253;48.736;9.294;2022-12-29T07:23:13;2.22;;;0.80;;
51190;SDS011;37253;48.736;9.294;2022-12-29T07:25:14;3.17;;;0.90;;
51190;SDS011;37253;48.736;9.294;2022-12-29T07:27:14;2.45;;;0.90;;
51190;SDS011;37253;48.736;9.294;2022-12-29T07:29:15;3.40;;;0.60;;
51190;SDS011;37253;48.736;9.294;2022-12-29T07:31:16;1.42;;;0.77;;
51190;SDS011;37253;48.736;9.294;2022-12-29T07:33:17;1.30;;;0.82;;
51190;SDS011;37253;48.736;9.294;2022-12-29T07:35:18;0.93;;;0.70;;
51190;SDS011;37253;48.736;9.294;2022-12-29T07:37:18;1.38;;;0.80;;
51190;SDS011;37253;48.736;9.294;2022-12-29T07:39:18;1.35;;;0.80;;
51190;SDS011;37253;48.736;9.294;2022-12-29T07:41:19;1.23;;;0.70;;
51190;SDS011;37253;48.736;9.294;2022-12-29T07:43:19;4.00;;;0.60;;
51190;SDS011;37253;48.736;9.294;2022-12-29T07:45:19;3.03;;;1.05;;
51190;SDS011;37253;48.736;9.294;2022-12-29T07:47:20;6.47;;;1.00;;
51190;SDS011;37253;48.736;9.294;2022-12-29T07:49:20;13.30;;;0.90;;
51190;SDS011;37253;48.736;9.294;2022-12-29T07:51:20;5.03;;;0.95;;
51190;SDS011;37253;48.736;9.294;2022-12-29T07:53:20;1.45;;;0.80;;
51190;SDS011;37253;48.736;9.294;2022-12-29T07:55:21;7.32;;;0.80;;
51190;SDS011;37253;48.736;9.294;2022-12-29T07:57:21;6.30;;;0.80;;
51190;SDS011;37253;48.736;9.294;2022-12-29T07:59:21;2.10;;;0.80;;
51190;SDS011;37253;48.736;9.294;2022-12-29T08:01:22;1.25;;;0.73;;
51190;SDS011;37253;48.736;9.294;2022-12-29T08:03:23;5.90;;;0.95;;
51190;SDS011;37253;48.736;9.294;2022-12-29T08:05:23;3.38;;;0.80;;
51190;SDS011;37253;48.736;9.294;2022-12-29T08:07:24;3.33;;;0.90;;
51190;SDS011;37253;48.736;9.294;2022-12-29T08:09:24;1.90;;;0.70;;
51190;SDS011;37253;48.736;9.294;2022-12-29T08:11:24;2.95;;;0.77;;
51190;SDS011;37253;48.736;9.294;2022-12-29T08:13:25;1.17;;;0.77;;
51190;SDS011;37253;48.736;9.294;2022-12-29T08:15:25;3.70;;;0.70;;
51190;SDS011;37253;48.736;9.294;2022-12-29T08:17:25;2.17;;;0.88;;
51190;SDS011;37253;48.736;9.294;2022-12-29T08:19:26;4.95;;;0.85;;
51190;SDS011;37253;48.736;9.294;2022-12-29T08:21:29;2.28;;;0.80;;
51190;SDS011;37253;48.736;9.294;2022-12-29T08:23:29;2.72;;;0.70;;
51190;SDS011;37253;48.736;9.294;2022-12-29T08:25:30;4.00;;;0.80;;
51190;SDS011;37253;48.736;9.294;2022-12-29T08:27:30;1.52;;;0.80;;
51190;SDS011;37253;48.736;9.294;2022-12-29T08:29:30;5.85;;;0.90;;
51190;SDS011;37253;48.736;9.294;2022-12-29T08:31:31;1.63;;;0.88;;
51190;SDS011;37253;48.736;9.294;2022-12-29T08:33:31;15.13;;;1.17;;
51190;SDS011;37253;48.736;9.294;2022-12-29T08:35:31;6.15;;;0.80;;
51190;SDS011;37253;48.736;9.294;2022-12-29T08:37:32;8.40;;;1.10;;
51190;SDS011;37253;48.736;9.294;2022-12-29T08:39:33;1.45;;;0.80;;
51190;SDS011;37253;48.736;9.294;2022-12-29T08:41:34;3.13;;;1.10;;
51190;SDS011;37253;48.736;9.294;2022-12-29T08:43:34;2.10;;;0.80;;
51190;SDS011;37253;48.736;9.294;2022-12-29T08:45:35;4.53;;;1.30;;
51190;SDS011;37253;48.736;9.294;2022-12-29T08:47:35;1.73;;;0.80;;
51190;SDS011;37253;48.736;9.294;2022-12-29T08:49:35;3.33;;;1.20;;
51190;SDS011;37253;48.736;9.294;2022-12-29T08:51:36;3.63;;;1.00;;
51190;SDS011;37253;48.736;9.294;2022-12-29T08:53:36;3.97;;;1.00;;
51190;SDS011;37253;48.736;9.294;2022-12-29T08:55:36;7.97;;;1.17;;
51190;SDS011;37253;48.736;9.294;2022-12-29T08:57:37;1.60;;;1.00;;
51190;SDS011;37253;48.736;9.294;2022-12-29T08:59:37;4.97;;;1.00;;
51190;SDS011;37253;48.736;9.294;2022-12-29T09:01:37;2.88;;;0.95;;
51190;SDS011;37253;48.736;9.294;2022-12-29T09:03:40;5.72;;;1.20;;
51190;SDS011;37253;48.736;9.294;2022-12-29T09:05:40;4.13;;;1.02;;
51190;SDS011;37253;48.736;9.294;2022-12-29T09:07:40;9.38;;;1.08;;
51190;SDS011;37253;48.736;9.294;2022-12-29T09:09:41;6.93;;;0.90;;
51190;SDS011;37253;48.736;9.294;2022-12-29T09:11:41;7.65;;;1.20;;
51190;SDS011;37253;48.736;9.294;2022-12-29T09:13:42;7.80;;;1.40;;
51190;SDS011;37253;48.736;9.294;2022-12-29T09:15:42;5.68;;;1.10;;
51190;SDS011;37253;48.736;9.294;2022-12-29T09:17:42;11.80;;;1.65;;
51190;SDS011;37253;48.736;9.294;2022-12-29T09:19:45;9.45;;;1.45;;
51190;SDS011;37253;48.736;9.294;2022-12-29T09:21:46;6.13;;;1.30;;
51190;SDS011;37253;48.736;9.294;2022-12-29T09:23:47;11.85;;;1.27;;
51190;SDS011;37253;48.736;9.294;2022-12-29T09:25:48;9.50;;;1.40;;
51190;SDS011;37253;48.736;9.294;2022-12-29T09:27:48;12.05;;;1.75;;
51190;SDS011;37253;48.736;9.294;2022-12-29T09:29:48;18.65;;;1.85;;
51190;SDS011;37253;48.736;9.294;2022-12-29T09:31:49;12.43;;;1.67;;
51190;SDS011;37253;48.736;9.294;2022-12-29T09:33:49;29.95;;;2.55;;
51190;SDS011;37253;48.736;9.294;2022-12-29T09:35:50;52.53;;;3.65;;
51190;SDS011;37253;48.736;9.294;2022-12-29T09:37:55;32.63;;;2.30;;
51190;SDS011;37253;48.736;9.294;2022-12-29T09:39:55;21.20;;;2.65;;
51190;SDS011;37253;48.736;9.294;2022-12-29T09:42:00;18.25;;;2.33;;
51190;SDS011;37253;48.736;9.294;2022-12-29T09:46:24;21.25;;;2.10;;
51190;SDS011;37253;48.736;9.294;2022-12-29T09:48:39;19.10;;;2.17;;
51190;SDS011;37253;48.736;9.294;2022-12-29T09:50:41;11.60;;;2.17;;
51190;SDS011;37253;48.736;9.294;2022-12-29T09:52:46;15.77;;;2.08;;
51190;SDS011;37253;48.736;9.294;2022-12-29T09:54:51;18.02;;;2.45;;
51190;SDS011;37253;48.736;9.294;2022-12-29T09:56:53;11.73;;;1.92;;
51190;SDS011;37253;48.736;9.294;2022-12-29T09:58:57;16.02;;;2.17;;
51190;SDS011;37253;48.736;9.294;2022-12-29T10:01:04;12.35;;;1.80;;
51190;SDS011;37253;48.736;9.294;2022-12-29T10:03:06;14.95;;;2.03;;
51190;SDS011;37253;48.736;9.294;2022-12-29T10:05:16;10.38;;;2.17;;
51190;SDS011;37253;48.736;9.294;2022-12-29T10:09:52;11.20;;;1.30;;
51190;SDS011;37253;48.736;9.294;2022-12-29T10:16:46;16.83;;;2.22;;
51190;SDS011;37253;48.736;9.294;2022-12-29T10:19:00;14.85;;;1.50;;
51190;SDS011;37253;48.736;9.294;2022-12-29T10:21:16;8.82;;;2.10;;
51190;SDS011;37253;48.736;9.294;2022-12-29T10:23:29;11.45;;;1.70;;
51190;SDS011;37253;48.736;9.294;2022-12-29T10:25:34;12.80;;;1.70;;
51190;SDS011;37253;48.736;9.294;2022-12-29T10:27:38;14.18;;;1.60;;
51190;SDS011;37253;48.736;9.294;2022-12-29T10:29:46;15.15;;;1.60;;
51190;SDS011;37253;48.736;9.294;2022-12-29T10:31:57;8.32;;;1.58;;
51190;SDS011;37253;48.736;9.294;2022-12-29T10:34:00;11.23;;;1.30;;
51190;SDS011;37253;48.736;9.294;2022-12-29T10:36:16;8.98;;;1.60;;
51190;SDS011;37253;48.736;9.294;2022-12-29T10:38:22;9.38;;;1.63;;
51190;SDS011;37253;48.736;9.294;2022-12-29T10:40:27;10.85;;;1.80;;
51190;SDS011;37253;48.736;9.294;2022-12-29T10:43:07;9.30;;;1.90;;
51190;SDS011;37253;48.736;9.294;2022-12-29T10:45:17;11.85;;;1.88;;
51190;SDS011;37253;48.736;9.294;2022-12-29T10:47:20;13.13;;;1.60;;
51190;SDS011;37253;48.736;9.294;2022-12-29T10:49:25;7.30;;;1.50;;
51190;SDS011;37253;48.736;9.294;2022-12-29T10:51:30;9.60;;;1.40;;
51190;SDS011;37253;48.736;9.294;2022-12-29T10:53:42;6.80;;;1.60;;
51190;SDS011;37253;48.736;9.294;2022-12-29T10:55:44;11.43;;;1.48;;
51190;SDS011;37253;48.736;9.294;2022-12-29T10:57:46;7.97;;;1.40;;
51190;SDS011;37253;48.736;9.294;2022-12-29T10:59:47;7.97;;;1.40;;
51190;SDS011;37253;48.736;9.294;2022-12-29T11:06:27;8.55;;;1.50;;
51190;SDS011;37253;48.736;9.294;2022-12-29T11:08:30;5.10;;;1.20;;
51190;SDS011;37253;48.736;9.294;2022-12-29T11:10:36;7.90;;;1.30;;
51190;SDS011;37253;48.736;9.294;2022-12-29T11:12:39;4.90;;;1.17;;
51190;SDS011;37253;48.736;9.294;2022-12-29T11:14:40;9.90;;;1.52;;
51190;SDS011;37253;48.736;9.294;2022-12-29T11:16:41;8.88;;;1.30;;
51190;SDS011;37253;48.736;9.294;2022-12-29T11:18:43;6.18;;;1.33;;
51190;SDS011;37253;48.736;9.294;2022-12-29T11:20:46;7.70;;;1.45;;
51190;SDS011;37253;48.736;9.294;2022-12-29T11:22:47;4.25;;;0.93;;
51190;SDS011;37253;48.736;9.294;2022-12-29T11:24:49;6.53;;;1.20;;
51190;SDS011;37253;48.736;9.294;2022-12-29T11:26:51;3.53;;;0.90;;
51190;SDS011;37253;48.736;9.294;2022-12-29T11:31:13;4.72;;;1.10;;
51190;SDS011;37253;48.736;9.294;2022-12-29T11:33:16;5.18;;;1.20;;
51190;SDS011;37253;48.736;9.294;2022-12-29T11:35:33;5.72;;;1.20;;
51190;SDS011;37253;48.736;9.294;2022-12-29T11:37:41;4.85;;;1.10;;
51190;SDS011;37253;48.736;9.294;2022-12-29T11:41:50;3.22;;;1.10;;
51190;SDS011;37253;48.736;9.294;2022-12-29T11:43:52;7.55;;;1.40;;
51190;SDS011;37253;48.736;9.294;2022-12-29T11:45:53;5.20;;;0.80;;
51190;SDS011;37253;48.736;9.294;2022-12-29T11:47:55;4.60;;;0.90;;
51190;SDS011;37253;48.736;9.294;2022-12-29T11:49:58;2.55;;;1.00;;
51190;SDS011;37253;48.736;9.294;2022-12-29T11:52:00;2.70;;;1.10;;
51190;SDS011;37253;48.736;9.294;2022-12-29T11:54:01;6.07;;;1.08;;
51190;SDS011;37253;48.736;9.294;2022-12-29T11:56:04;3.38;;;0.93;;
51190;SDS011;37253;48.736;9.294;2022-12-29T12:00:27;2.47;;;1.08;;
51190;SDS011;37253;48.736;9.294;2022-12-29T12:02:32;4.10;;;1.05;;
51190;SDS011;37253;48.736;9.294;2022-12-29T12:04:36;6.55;;;1.27;;
51190;SDS011;37253;48.736;9.294;2022-12-29T12:06:41;3.75;;;0.98;;
51190;SDS011;37253;48.736;9.294;2022-12-29T12:08:56;3.72;;;1.10;;
51190;SDS011;37253;48.736;9.294;2022-12-29T12:15:44;5.95;;;1.33;;
51190;SDS011;37253;48.736;9.294;2022-12-29T12:17:55;4.85;;;1.20;;
51190;SDS011;37253;48.736;9.294;2022-12-29T12:20:19;4.95;;;0.90;;
51190;SDS011;37253;48.736;9.294;2022-12-29T12:22:27;3.65;;;0.98;;
51190;SDS011;37253;48.736;9.294;2022-12-29T12:24:48;2.60;;;1.20;;
51190;SDS011;37253;48.736;9.294;2022-12-29T12:26:59;2.80;;;1.02;;
51190;SDS011;37253;48.736;9.294;2022-12-29T12:29:16;3.35;;;0.95;;
51190;SDS011;37253;48.736;9.294;2022-12-29T12:33:39;3.75;;;0.90;;
51190;SDS011;37253;48.736;9.294;2022-12-29T12:36:00;4.97;;;1.17;;
51190;SDS011;37253;48.736;9.294;2022-12-29T12:48:19;2.00;;;0.70;;
51190;SDS011;37253;48.736;9.294;2022-12-29T12:55:14;5.82;;;0.80;;
51190;SDS011;37253;48.736;9.294;2022-12-29T13:00:14;1.95;;;0.90;;
51190;SDS011;37253;48.736;9.294;2022-12-29T13:07:13;3.72;;;0.80;;
51190;SDS011;37253;48.736;9.294;2022-12-29T13:11:56;2.95;;;0.80;;
51190;SDS011;37253;48.736;9.294;2022-12-29T13:16:11;2.22;;;0.90;;
51190;SDS011;37253;48.736;9.294;2022-12-29T13:21:01;2.65;;;0.80;;
51190;SDS011;37253;48.736;9.294;2022-12-29T13:23:21;3.97;;;0.75;;
51190;SDS011;37253;48.736;9.294;2022-12-29T13:25:34;3.05;;;0.70;;
51190;SDS011;37253;48.736;9.294;2022-12-29T13:27:45;2.63;;;0.90;;
51190;SDS011;37253;48.736;9.294;2022-12-29T13:32:21;1.38;;;0.68;;
51190;SDS011;37253;48.736;9.294;2022-12-29T13:36:58;2.40;;;0.90;;
51190;SDS011;37253;48.736;9.294;2022-12-29T13:39:10;3.38;;;0.80;;
51190;SDS011;37253;48.736;9.294;2022-12-29T13:41:18;1.90;;;0.65;;
51190;SDS011;37253;48.736;9.294;2022-12-29T13:43:25;2.33;;;0.75;;
51190;SDS011;37253;48.736;9.294;2022-12-29T13:45:28;2.92;;;0.77;;
51190;SDS011;37253;48.736;9.294;2022-12-29T13:49:50;1.75;;;0.80;;
51190;SDS011;37253;48.736;9.294;2022-12-29T13:51:52;4.00;;;0.90;;
51190;SDS011;37253;48.736;9.294;2022-12-29T13:53:58;3.10;;;0.80;;
51190;SDS011;37253;48.736;9.294;2022-12-29T13:56:10;3.60;;;0.80;;